createdAt,value
2019-05-17T00:00:00.082Z,935.39
2019-05-17T00:00:59.966Z,935.37
2019-05-17T00:01:59.943Z,935.33
2019-05-17T00:02:59.871Z,935.35
2019-05-17T00:03:59.844Z,935.39
2019-05-17T00:04:59.799Z,935.36
2019-05-17T00:05:59.838Z,935.46
2019-05-17T00:06:59.691Z,935.47
2019-05-17T00:07:59.653Z,935.46
2019-05-17T00:08:59.590Z,935.41
2019-05-17T00:09:59.549Z,935.40
2019-05-17T00:10:59.485Z,935.45
2019-05-17T00:11:59.560Z,935.39
2019-05-17T00:12:59.390Z,935.40
2019-05-17T00:13:59.355Z,935.42
2019-05-17T00:14:59.294Z,935.45
2019-05-17T00:15:59.258Z,935.45
2019-05-17T00:16:59.197Z,935.52
2019-05-17T00:17:59.214Z,935.53
2019-05-17T00:18:59.128Z,935.59
2019-05-17T00:19:59.077Z,935.48
2019-05-17T00:20:59.019Z,935.57
2019-05-17T00:21:58.969Z,935.57
2019-05-17T00:22:58.909Z,935.58
2019-05-17T00:23:58.961Z,935.62
2019-05-17T00:24:58.834Z,935.52
2019-05-17T00:25:58.777Z,935.51
2019-05-17T00:26:58.728Z,935.46
2019-05-17T00:27:58.697Z,935.45
2019-05-17T00:28:58.643Z,935.43
2019-05-17T00:29:58.622Z,935.44
2019-05-17T00:30:58.533Z,935.43
2019-05-17T00:31:58.490Z,935.41
2019-05-17T00:32:58.427Z,935.42
2019-05-17T00:33:58.387Z,935.41
2019-05-17T00:34:58.357Z,935.47
2019-05-17T00:35:58.340Z,935.47
2019-05-17T00:36:58.253Z,935.45
2019-05-17T00:37:58.201Z,935.52
2019-05-17T00:38:58.142Z,935.57
2019-05-17T00:39:58.107Z,935.65
2019-05-17T00:40:58.052Z,935.54
2019-05-17T00:41:58.054Z,935.58
2019-05-17T00:42:57.957Z,935.61
2019-05-17T00:43:57.912Z,935.61
2019-05-17T00:44:57.872Z,935.73
2019-05-17T00:45:57.835Z,935.72
2019-05-17T00:46:58.817Z,935.70
2019-05-17T00:47:57.778Z,935.66
2019-05-17T00:48:57.670Z,935.67
2019-05-17T00:49:57.611Z,935.72
2019-05-17T00:51:01.879Z,935.80
2019-05-17T00:51:57.528Z,935.83
2019-05-17T00:52:57.493Z,935.76
2019-05-17T00:53:57.478Z,935.81
2019-05-17T00:54:57.380Z,935.81
2019-05-17T00:55:57.452Z,935.71
2019-05-17T00:56:57.287Z,935.66
2019-05-17T00:57:57.226Z,935.61
2019-05-17T00:58:57.202Z,935.67
2019-05-17T00:59:57.143Z,935.61
2019-05-17T01:00:57.256Z,935.66
2019-05-17T01:01:57.047Z,935.65
2019-05-17T01:02:57.411Z,935.70
2019-05-17T01:03:57.233Z,935.64
2019-05-17T01:04:56.985Z,935.59
2019-05-17T01:06:01.711Z,935.62
2019-05-17T01:06:56.815Z,935.58
2019-05-17T01:07:57.314Z,935.57
2019-05-17T01:09:01.900Z,935.47
2019-05-17T01:09:56.755Z,935.51
2019-05-17T01:10:56.747Z,935.43
2019-05-17T01:11:56.751Z,935.43
2019-05-17T01:12:57.545Z,935.51
2019-05-17T01:13:58.510Z,935.42
2019-05-17T01:14:58.255Z,935.41
2019-05-17T01:15:56.735Z,935.36
2019-05-17T01:16:56.570Z,935.35
2019-05-17T01:17:56.407Z,935.33
2019-05-17T01:18:57.351Z,935.35
2019-05-17T01:19:57.418Z,935.32
2019-05-17T01:20:56.802Z,935.35
2019-05-17T01:21:56.828Z,935.40
2019-05-17T01:22:56.653Z,935.40
2019-05-17T01:23:56.305Z,935.41
2019-05-17T01:24:56.930Z,935.39
2019-05-17T01:25:56.681Z,935.35
2019-05-17T01:26:57.392Z,935.34
2019-05-17T01:27:56.378Z,935.39
2019-05-17T01:28:57.341Z,935.36
2019-05-17T01:29:57.297Z,935.37
2019-05-17T01:30:57.028Z,935.37
2019-05-17T01:31:57.080Z,935.36
2019-05-17T01:32:56.993Z,935.30
2019-05-17T01:33:56.538Z,935.30
2019-05-17T01:34:56.471Z,935.32
2019-05-17T01:35:57.286Z,935.34
2019-05-17T01:36:56.932Z,935.37
2019-05-17T01:37:56.520Z,935.30
2019-05-17T01:38:57.439Z,935.29
2019-05-17T01:39:57.252Z,935.38
2019-05-17T01:40:56.423Z,935.35
2019-05-17T01:41:57.241Z,935.26
2019-05-17T01:42:55.085Z,935.33
2019-05-17T01:43:56.888Z,935.32
2019-05-17T01:44:56.750Z,935.35
2019-05-17T01:45:57.270Z,935.28
2019-05-17T01:46:56.716Z,935.38
2019-05-17T01:47:56.327Z,935.38
2019-05-17T01:48:54.783Z,935.38
2019-05-17T01:49:54.734Z,935.49
2019-05-17T01:50:56.708Z,935.47
2019-05-17T01:51:56.776Z,935.43
2019-05-17T01:52:56.486Z,935.49
2019-05-17T01:53:54.555Z,935.46
2019-05-17T01:54:54.494Z,935.51
2019-05-17T01:55:56.660Z,935.50
2019-05-17T01:56:56.533Z,935.50
2019-05-17T01:57:56.392Z,935.49
2019-05-17T01:58:54.307Z,935.52
2019-05-17T01:59:54.246Z,935.54
2019-05-17T02:00:54.210Z,935.56
2019-05-17T02:01:56.419Z,935.53
2019-05-17T02:02:54.110Z,935.56
2019-05-17T02:03:54.054Z,935.55
2019-05-17T02:04:54.027Z,935.62
2019-05-17T02:05:56.454Z,935.62
2019-05-17T02:06:53.924Z,935.55
2019-05-17T02:07:53.874Z,935.57
2019-05-17T02:08:53.814Z,935.56
2019-05-17T02:09:53.790Z,935.53
2019-05-17T02:10:53.718Z,935.55
2019-05-17T02:11:53.670Z,935.46
2019-05-17T02:12:53.647Z,935.52
2019-05-17T02:13:53.574Z,935.46
2019-05-17T02:14:53.547Z,935.44
2019-05-17T02:15:53.491Z,935.46
2019-05-17T02:16:53.442Z,935.41
2019-05-17T02:17:53.395Z,935.42
2019-05-17T02:18:53.357Z,935.38
2019-05-17T02:19:53.286Z,935.40
2019-05-17T02:20:53.263Z,935.47
2019-05-17T02:21:53.203Z,935.47
2019-05-17T02:22:53.154Z,935.45
2019-05-17T02:23:53.109Z,935.42
2019-05-17T02:24:53.059Z,935.44
2019-05-17T02:25:53.023Z,935.48
2019-05-17T02:26:52.952Z,935.46
2019-05-17T02:27:52.903Z,935.43
2019-05-17T02:28:52.876Z,935.46
2019-05-17T02:29:52.818Z,935.38
2019-05-17T02:30:53.127Z,935.41
2019-05-17T02:31:52.784Z,935.40
2019-05-17T02:32:54.023Z,935.38
2019-05-17T02:33:53.521Z,935.35
2019-05-17T02:34:53.084Z,935.39
2019-05-17T02:35:53.641Z,935.38
2019-05-17T02:36:53.358Z,935.41
2019-05-17T02:37:53.393Z,935.43
2019-05-17T02:38:53.207Z,935.41
2019-05-17T02:40:02.383Z,935.42
2019-05-17T02:40:53.685Z,935.38
2019-05-17T02:41:53.286Z,935.39
2019-05-17T02:42:53.554Z,935.42
2019-05-17T02:43:53.393Z,935.39
2019-05-17T02:44:53.166Z,935.39
2019-05-17T02:45:52.917Z,935.38
2019-05-17T02:46:53.704Z,935.31
2019-05-17T02:47:53.737Z,935.34
2019-05-17T02:48:53.927Z,935.32
2019-05-17T02:49:52.501Z,935.29
2019-05-17T02:50:53.282Z,935.29
2019-05-17T02:51:52.800Z,935.26
2019-05-17T02:52:52.841Z,935.25
2019-05-17T02:53:52.685Z,935.23
2019-05-17T02:54:52.689Z,935.22
2019-05-17T02:55:53.875Z,935.23
2019-05-17T02:56:53.848Z,935.23
2019-05-17T02:57:52.940Z,935.24
2019-05-17T02:58:53.328Z,935.21
2019-05-17T02:59:52.497Z,935.22
2019-05-17T03:00:53.270Z,935.23
2019-05-17T03:01:52.696Z,935.19
2019-05-17T03:02:53.580Z,935.24
2019-05-17T03:03:52.889Z,935.22
2019-05-17T03:04:52.596Z,935.25
2019-05-17T03:05:53.565Z,935.22
2019-05-17T03:06:53.208Z,935.23
2019-05-17T03:07:52.803Z,935.22
2019-05-17T03:08:52.510Z,935.22
2019-05-17T03:09:54.956Z,935.21
2019-05-17T03:10:53.551Z,935.19
2019-05-17T03:11:53.848Z,935.28
2019-05-17T03:12:52.964Z,935.20
2019-05-17T03:13:52.562Z,935.23
2019-05-17T03:14:52.868Z,935.22
2019-05-17T03:15:52.785Z,935.24
2019-05-17T03:16:53.431Z,935.17
2019-05-17T03:17:53.421Z,935.21
2019-05-17T03:18:53.021Z,935.14
2019-05-17T03:19:52.972Z,935.09
2019-05-17T03:20:52.516Z,935.12
2019-05-17T03:21:53.309Z,935.12
2019-05-17T03:22:52.566Z,935.12
2019-05-17T03:23:50.221Z,935.12
2019-05-17T03:24:53.075Z,935.09
2019-05-17T03:25:52.437Z,935.04
2019-05-17T03:26:52.604Z,935.06
2019-05-17T03:27:53.350Z,935.00
2019-05-17T03:28:53.584Z,935.05
2019-05-17T03:29:53.497Z,935.02
2019-05-17T03:30:55.628Z,935.01
2019-05-17T03:31:58.061Z,935.01
2019-05-17T03:32:55.472Z,934.99
2019-05-17T03:33:55.087Z,935.01
2019-05-17T03:34:55.286Z,934.94
2019-05-17T03:35:49.667Z,934.91
2019-05-17T03:36:55.771Z,934.86
2019-05-17T03:37:52.891Z,934.83
2019-05-17T03:38:49.510Z,934.84
2019-05-17T03:39:49.462Z,934.83
2019-05-17T03:41:11.870Z,934.81
2019-05-17T03:41:49.372Z,934.79
2019-05-17T03:42:49.310Z,934.79
2019-05-17T03:43:49.287Z,934.77
2019-05-17T03:44:49.231Z,934.71
2019-05-17T03:45:49.186Z,934.67
2019-05-17T03:46:49.122Z,934.66
2019-05-17T03:47:49.091Z,934.68
2019-05-17T03:48:49.022Z,934.61
2019-05-17T03:49:49.000Z,934.65
2019-05-17T03:50:48.944Z,934.61
2019-05-17T03:51:48.901Z,934.64
2019-05-17T03:52:48.844Z,934.61
2019-05-17T03:53:48.795Z,934.62
2019-05-17T03:54:48.748Z,934.60
2019-05-17T03:55:48.755Z,934.63
2019-05-17T03:56:48.652Z,934.66
2019-05-17T03:57:48.604Z,934.68
2019-05-17T03:58:48.543Z,934.64
2019-05-17T03:59:48.509Z,934.66
2019-05-17T04:00:48.461Z,934.61
2019-05-17T04:01:48.425Z,934.60
2019-05-17T04:02:48.364Z,934.58
2019-05-17T04:03:48.324Z,934.58
2019-05-17T04:04:48.282Z,934.60
2019-05-17T04:05:48.211Z,934.60
2019-05-17T04:06:48.197Z,934.60
2019-05-17T04:07:48.125Z,934.58
2019-05-17T04:08:48.097Z,934.59
2019-05-17T04:09:48.026Z,934.73
2019-05-17T04:10:47.984Z,934.72
2019-05-17T04:11:47.935Z,934.67
2019-05-17T04:12:47.893Z,934.71
2019-05-17T04:13:47.828Z,934.66
2019-05-17T04:14:47.791Z,934.64
2019-05-17T04:15:47.752Z,934.61
2019-05-17T04:16:47.683Z,934.61
2019-05-17T04:17:47.661Z,934.59
2019-05-17T04:18:47.601Z,934.64
2019-05-17T04:19:47.540Z,934.64
2019-05-17T04:20:47.492Z,934.66
2019-05-17T04:21:47.475Z,934.64
2019-05-17T04:22:47.409Z,934.63
2019-05-17T04:23:47.356Z,934.61
2019-05-17T04:24:47.316Z,934.59
2019-05-17T04:25:47.264Z,934.61
2019-05-17T04:26:47.230Z,934.59
2019-05-17T04:27:47.165Z,934.61
2019-05-17T04:28:47.127Z,934.58
2019-05-17T04:29:47.086Z,934.59
2019-05-17T04:30:47.013Z,934.55
2019-05-17T04:31:46.987Z,934.59
2019-05-17T04:32:46.934Z,934.60
2019-05-17T04:33:46.878Z,934.63
2019-05-17T04:34:46.835Z,934.61
2019-05-17T04:35:46.774Z,934.61
2019-05-17T04:36:46.747Z,934.60
2019-05-17T04:37:46.678Z,934.58
2019-05-17T04:38:46.642Z,934.64
2019-05-17T04:39:46.583Z,934.64
2019-05-17T04:40:46.549Z,934.60
2019-05-17T04:41:50.355Z,934.58
2019-05-17T04:42:46.448Z,934.52
2019-05-17T04:43:46.391Z,934.54
2019-05-17T04:44:46.359Z,934.54
2019-05-17T04:45:46.319Z,934.51
2019-05-17T04:46:46.273Z,934.54
2019-05-17T04:47:46.201Z,934.52
2019-05-17T04:48:46.177Z,934.52
2019-05-17T04:49:46.118Z,934.53
2019-05-17T04:50:46.081Z,934.54
2019-05-17T04:51:46.034Z,934.52
2019-05-17T04:52:45.980Z,934.50
2019-05-17T04:53:45.912Z,934.46
2019-05-17T04:54:45.879Z,934.51
2019-05-17T04:55:45.829Z,934.49
2019-05-17T04:56:45.778Z,934.45
2019-05-17T04:57:45.743Z,934.48
2019-05-17T04:58:45.682Z,934.46
2019-05-17T04:59:45.633Z,934.43
2019-05-17T05:00:45.591Z,934.40
2019-05-17T05:01:45.530Z,934.40
2019-05-17T05:02:45.481Z,934.39
2019-05-17T05:03:45.446Z,934.38
2019-05-17T05:04:45.391Z,934.34
2019-05-17T05:05:45.354Z,934.33
2019-05-17T05:06:45.310Z,934.33
2019-05-17T05:07:45.252Z,934.30
2019-05-17T05:08:45.216Z,934.29
2019-05-17T05:09:45.158Z,934.25
2019-05-17T05:10:45.119Z,934.28
2019-05-17T05:11:57.004Z,934.28
2019-05-17T05:12:45.023Z,934.28
2019-05-17T05:13:44.967Z,934.21
2019-05-17T05:14:44.928Z,934.25
2019-05-17T05:15:45.002Z,934.19
2019-05-17T05:16:44.825Z,934.19
2019-05-17T05:17:44.775Z,934.15
2019-05-17T05:18:44.726Z,934.16
2019-05-17T05:19:44.688Z,934.11
2019-05-17T05:20:44.624Z,934.09
2019-05-17T05:21:44.580Z,934.08
2019-05-17T05:22:44.523Z,934.07
2019-05-17T05:23:44.477Z,934.01
2019-05-17T05:24:44.436Z,934.02
2019-05-17T05:25:44.390Z,933.98
2019-05-17T05:26:44.339Z,934.00
2019-05-17T05:27:44.307Z,933.95
2019-05-17T05:28:44.257Z,933.98
2019-05-17T05:29:44.195Z,933.99
2019-05-17T05:30:44.147Z,933.95
2019-05-17T05:31:44.100Z,933.96
2019-05-17T05:32:44.052Z,933.96
2019-05-17T05:33:44.008Z,933.93
2019-05-17T05:34:46.377Z,933.93
2019-05-17T05:35:43.901Z,933.90
2019-05-17T05:36:43.864Z,933.90
2019-05-17T05:37:43.817Z,933.84
2019-05-17T05:38:43.759Z,933.89
2019-05-17T05:39:43.708Z,933.86
2019-05-17T05:40:43.660Z,933.90
2019-05-17T05:41:43.637Z,933.84
2019-05-17T05:42:43.576Z,933.86
2019-05-17T05:43:43.524Z,933.80
2019-05-17T05:44:43.489Z,933.73
2019-05-17T05:45:43.432Z,933.73
2019-05-17T05:46:43.399Z,933.77
2019-05-17T05:47:43.348Z,933.71
2019-05-17T05:48:43.287Z,933.74
2019-05-17T05:49:43.255Z,933.68
2019-05-17T05:50:43.516Z,933.68
2019-05-17T05:51:43.133Z,933.68
2019-05-17T05:52:43.093Z,933.71
2019-05-17T05:53:43.057Z,933.72
2019-05-17T05:54:43.010Z,933.70
2019-05-17T05:55:43.339Z,933.73
2019-05-17T05:56:42.909Z,933.69
2019-05-17T05:57:42.861Z,933.67
2019-05-17T05:58:42.990Z,933.68
2019-05-17T05:59:42.771Z,933.66
2019-05-17T06:00:43.124Z,933.68
2019-05-17T06:01:42.667Z,933.68
2019-05-17T06:02:42.610Z,933.71
2019-05-17T06:03:42.560Z,933.68
2019-05-17T06:04:42.567Z,933.68
2019-05-17T06:05:42.679Z,933.69
2019-05-17T06:06:42.426Z,933.72
2019-05-17T06:07:42.378Z,933.73
2019-05-17T06:08:42.342Z,933.75
2019-05-17T06:09:42.483Z,933.72
2019-05-17T06:10:42.891Z,933.73
2019-05-17T06:11:42.187Z,933.72
2019-05-17T06:12:43.407Z,933.72
2019-05-17T06:13:42.104Z,933.70
2019-05-17T06:14:42.030Z,933.68
2019-05-17T06:15:43.013Z,933.68
2019-05-17T06:16:42.619Z,933.71
2019-05-17T06:17:42.771Z,933.74
2019-05-17T06:18:42.469Z,933.72
2019-05-17T06:19:42.233Z,933.73
2019-05-17T06:20:42.113Z,933.76
2019-05-17T06:21:42.715Z,933.80
2019-05-17T06:22:42.782Z,933.76
2019-05-17T06:23:42.463Z,933.77
2019-05-17T06:24:42.522Z,933.77
2019-05-17T06:25:43.587Z,933.80
2019-05-17T06:26:42.095Z,933.78
2019-05-17T06:27:41.695Z,933.77
2019-05-17T06:28:42.460Z,933.78
2019-05-17T06:29:41.596Z,933.78
2019-05-17T06:30:43.051Z,933.73
2019-05-17T06:31:43.329Z,933.76
2019-05-17T06:32:43.332Z,933.74
2019-05-17T06:33:42.172Z,933.74
2019-05-17T06:34:42.336Z,933.74
2019-05-17T06:35:42.245Z,933.74
2019-05-17T06:36:42.285Z,933.74
2019-05-17T06:37:42.215Z,933.71
2019-05-17T06:38:42.026Z,933.72
2019-05-17T06:39:41.947Z,933.74
2019-05-17T06:40:41.956Z,933.73
2019-05-17T06:41:41.955Z,933.72
2019-05-17T06:42:44.746Z,933.70
2019-05-17T06:43:41.611Z,933.65
2019-05-17T06:44:41.794Z,933.63
2019-05-17T06:45:41.821Z,933.70
2019-05-17T06:46:41.819Z,933.66
2019-05-17T06:47:42.647Z,933.68
2019-05-17T06:48:42.359Z,933.66
2019-05-17T06:49:42.375Z,933.67
2019-05-17T06:50:42.573Z,933.61
2019-05-17T06:51:42.380Z,933.61
2019-05-17T06:52:43.124Z,933.63
2019-05-17T06:53:40.189Z,933.60
2019-05-17T06:54:41.741Z,933.61
2019-05-17T06:55:42.295Z,933.61
2019-05-17T06:56:41.846Z,933.62
2019-05-17T06:57:39.996Z,933.61
2019-05-17T06:58:39.935Z,933.65
2019-05-17T06:59:39.889Z,933.59
2019-05-17T07:00:40.460Z,933.58
2019-05-17T07:01:40.996Z,933.59
2019-05-17T07:02:40.226Z,933.58
2019-05-17T07:03:40.005Z,933.55
2019-05-17T07:04:39.689Z,933.54
2019-05-17T07:05:40.354Z,933.50
2019-05-17T07:06:40.485Z,933.52
2019-05-17T07:07:40.522Z,933.54
2019-05-17T07:08:40.219Z,933.47
2019-05-17T07:09:40.083Z,933.47
2019-05-17T07:10:39.951Z,933.47
2019-05-17T07:11:39.821Z,933.41
2019-05-17T07:12:54.503Z,933.45
2019-05-17T07:13:39.620Z,933.39
2019-05-17T07:14:40.098Z,933.41
2019-05-17T07:15:46.817Z,933.39
2019-05-17T07:16:39.742Z,933.34
2019-05-17T07:17:40.060Z,933.39
2019-05-17T07:18:39.989Z,933.32
2019-05-17T07:19:40.049Z,933.35
2019-05-17T07:20:39.513Z,933.32
2019-05-17T07:21:40.390Z,933.29
2019-05-17T07:22:40.809Z,933.29
2019-05-17T07:23:39.678Z,933.28
2019-05-17T07:24:39.690Z,933.23
2019-05-17T07:25:39.646Z,933.26
2019-05-17T07:26:39.343Z,933.28
2019-05-17T07:27:42.680Z,933.27
2019-05-17T07:28:40.483Z,933.33
2019-05-17T07:29:40.351Z,933.31
2019-05-17T07:30:39.954Z,933.35
2019-05-17T07:31:40.426Z,933.38
2019-05-17T07:32:40.683Z,933.41
2019-05-17T07:33:39.880Z,933.40
2019-05-17T07:34:40.146Z,933.42
2019-05-17T07:35:39.645Z,933.37
2019-05-17T07:36:39.711Z,933.42
2019-05-17T07:37:39.722Z,933.43
2019-05-17T07:38:39.668Z,933.42
2019-05-17T07:39:40.059Z,933.42
2019-05-17T07:40:39.924Z,933.42
2019-05-17T07:41:39.946Z,933.37
2019-05-17T07:42:39.686Z,933.40
2019-05-17T07:43:37.786Z,933.39
2019-05-17T07:44:37.727Z,933.37
2019-05-17T07:45:40.179Z,933.41
2019-05-17T07:46:39.975Z,933.45
2019-05-17T07:47:40.117Z,933.40
2019-05-17T07:48:37.542Z,933.48
2019-05-17T07:49:40.326Z,933.44
2019-05-17T07:50:39.588Z,933.48
2019-05-17T07:51:39.431Z,933.48
2019-05-17T07:52:39.669Z,933.47
2019-05-17T07:53:37.315Z,933.51
2019-05-17T07:54:39.783Z,933.51
2019-05-17T07:55:39.640Z,933.50
2019-05-17T07:56:39.993Z,933.50
2019-05-17T07:57:37.123Z,933.58
2019-05-17T07:58:37.076Z,933.53
2019-05-17T07:59:37.019Z,933.53
2019-05-17T08:00:39.636Z,933.59
2019-05-17T08:01:36.912Z,933.56
2019-05-17T08:02:36.871Z,933.56
2019-05-17T08:03:36.841Z,933.61
2019-05-17T08:04:36.767Z,933.59
2019-05-17T08:05:36.722Z,933.55
2019-05-17T08:06:36.686Z,933.54
2019-05-17T08:07:36.637Z,933.51
2019-05-17T08:08:36.585Z,933.53
2019-05-17T08:09:36.527Z,933.57
2019-05-17T08:10:36.481Z,933.57
2019-05-17T08:11:36.444Z,933.59
2019-05-17T08:12:36.397Z,933.58
2019-05-17T08:13:36.358Z,933.56
2019-05-17T08:14:36.288Z,933.59
2019-05-17T08:15:36.239Z,933.59
2019-05-17T08:16:36.191Z,933.60
2019-05-17T08:17:36.169Z,933.62
2019-05-17T08:18:36.108Z,933.65
2019-05-17T08:19:36.059Z,933.72
2019-05-17T08:20:36.016Z,933.67
2019-05-17T08:21:35.964Z,933.68
2019-05-17T08:22:35.919Z,933.71
2019-05-17T08:23:35.869Z,933.66
2019-05-17T08:24:35.822Z,933.66
2019-05-17T08:25:49.722Z,933.64
2019-05-17T08:26:35.724Z,933.64
2019-05-17T08:27:35.694Z,933.64
2019-05-17T08:28:35.709Z,933.67
2019-05-17T08:29:35.581Z,933.61
2019-05-17T08:30:35.543Z,933.62
2019-05-17T08:31:35.481Z,933.62
2019-05-17T08:32:35.427Z,933.63
2019-05-17T08:33:35.385Z,933.66
2019-05-17T08:34:35.341Z,933.72
2019-05-17T08:35:35.306Z,933.65
2019-05-17T08:36:35.253Z,933.70
2019-05-17T08:37:35.196Z,933.68
2019-05-17T08:38:35.161Z,933.74
2019-05-17T08:39:35.114Z,933.68
2019-05-17T08:40:35.055Z,933.73
2019-05-17T08:41:35.001Z,933.74
2019-05-17T08:42:34.961Z,933.81
2019-05-17T08:43:45.113Z,933.77
2019-05-17T08:44:34.862Z,933.73
2019-05-17T08:45:34.814Z,933.78
2019-05-17T08:46:34.765Z,933.82
2019-05-17T08:47:34.719Z,933.83
2019-05-17T08:48:34.683Z,933.87
2019-05-17T08:49:34.634Z,933.90
2019-05-17T08:50:34.574Z,933.87
2019-05-17T08:51:34.536Z,933.86
2019-05-17T08:52:34.493Z,933.91
2019-05-17T08:53:34.431Z,933.88
2019-05-17T08:54:34.371Z,933.94
2019-05-17T08:55:34.332Z,933.96
2019-05-17T08:56:34.299Z,933.97
2019-05-17T08:57:34.248Z,934.03
2019-05-17T08:58:34.204Z,934.03
2019-05-17T08:59:34.156Z,934.06
2019-05-17T09:00:34.111Z,934.07
2019-05-17T09:01:34.069Z,934.08
2019-05-17T09:02:34.009Z,934.08
2019-05-17T09:03:33.964Z,934.09
2019-05-17T09:04:33.984Z,934.09
2019-05-17T09:05:33.866Z,934.14
2019-05-17T09:06:33.800Z,934.15
2019-05-17T09:07:33.750Z,934.11
2019-05-17T09:08:33.714Z,934.16
2019-05-17T09:09:33.666Z,934.12
2019-05-17T09:10:33.605Z,934.09
2019-05-17T09:11:33.581Z,934.11
2019-05-17T09:12:33.484Z,934.15
2019-05-17T09:13:33.470Z,934.16
2019-05-17T09:14:33.426Z,934.13
2019-05-17T09:15:33.374Z,934.13
2019-05-17T09:16:33.332Z,934.15
2019-05-17T09:17:33.296Z,934.19
2019-05-17T09:18:33.244Z,934.21
2019-05-17T09:19:33.206Z,934.19
2019-05-17T09:20:33.141Z,934.24
2019-05-17T09:21:33.091Z,934.20
2019-05-17T09:22:33.056Z,934.24
2019-05-17T09:23:32.992Z,934.23
2019-05-17T09:24:32.936Z,934.26
2019-05-17T09:25:32.912Z,934.28
2019-05-17T09:26:32.842Z,934.23
2019-05-17T09:27:32.805Z,934.31
2019-05-17T09:28:32.754Z,934.31
2019-05-17T09:29:32.707Z,934.26
2019-05-17T09:30:32.664Z,934.26
2019-05-17T09:31:32.611Z,934.28
2019-05-17T09:32:32.555Z,934.28
2019-05-17T09:33:32.524Z,934.29
2019-05-17T09:34:32.481Z,934.30
2019-05-17T09:35:32.434Z,934.34
2019-05-17T09:36:32.383Z,934.31
2019-05-17T09:37:32.328Z,934.30
2019-05-17T09:38:32.293Z,934.32
2019-05-17T09:39:32.232Z,934.33
2019-05-17T09:40:32.171Z,934.33
2019-05-17T09:41:32.132Z,934.35
2019-05-17T09:42:32.087Z,934.37
2019-05-17T09:43:32.043Z,934.35
2019-05-17T09:44:32.003Z,934.38
2019-05-17T09:45:31.948Z,934.35
2019-05-17T09:46:31.883Z,934.40
2019-05-17T09:47:31.849Z,934.41
2019-05-17T09:48:31.803Z,934.48
2019-05-17T09:49:31.764Z,934.44
2019-05-17T09:50:31.716Z,934.46
2019-05-17T09:51:31.657Z,934.49
2019-05-17T09:52:31.596Z,934.47
2019-05-17T09:53:31.561Z,934.49
2019-05-17T09:54:41.363Z,934.49
2019-05-17T09:55:31.453Z,934.46
2019-05-17T09:56:31.405Z,934.53
2019-05-17T09:57:31.368Z,934.54
2019-05-17T09:58:31.336Z,934.52
2019-05-17T09:59:31.274Z,934.55
2019-05-17T10:00:31.236Z,934.55
2019-05-17T10:01:31.187Z,934.57
2019-05-17T10:02:31.117Z,934.57
2019-05-17T10:03:31.073Z,934.57
2019-05-17T10:04:31.035Z,934.62
2019-05-17T10:05:31.305Z,934.58
2019-05-17T10:06:30.929Z,934.65
2019-05-17T10:07:30.892Z,934.63
2019-05-17T10:08:30.843Z,934.64
2019-05-17T10:09:30.807Z,934.67
2019-05-17T10:10:30.747Z,934.67
2019-05-17T10:11:30.882Z,934.70
2019-05-17T10:12:30.655Z,934.72
2019-05-17T10:13:30.614Z,934.71
2019-05-17T10:14:31.432Z,934.73
2019-05-17T10:15:30.573Z,934.72
2019-05-17T10:16:30.816Z,934.76
2019-05-17T10:17:30.402Z,934.79
2019-05-17T10:18:30.385Z,934.83
2019-05-17T10:19:30.320Z,934.82
2019-05-17T10:20:30.270Z,934.88
2019-05-17T10:21:30.472Z,934.88
2019-05-17T10:22:30.564Z,934.91
2019-05-17T10:23:30.124Z,934.85
2019-05-17T10:24:38.120Z,934.84
2019-05-17T10:25:30.027Z,934.93
2019-05-17T10:26:30.487Z,934.92
2019-05-17T10:27:30.327Z,934.92
2019-05-17T10:28:29.901Z,934.96
2019-05-17T10:29:30.026Z,934.99
2019-05-17T10:30:30.022Z,935.02
2019-05-17T10:31:30.409Z,935.05
2019-05-17T10:32:31.011Z,935.04
2019-05-17T10:33:29.665Z,935.08
2019-05-17T10:34:29.603Z,935.07
2019-05-17T10:35:29.690Z,934.98
2019-05-17T10:36:29.520Z,935.05
2019-05-17T10:37:30.295Z,935.05
2019-05-17T10:38:30.037Z,935.02
2019-05-17T10:39:29.752Z,935.04
2019-05-17T10:40:29.932Z,935.07
2019-05-17T10:41:30.122Z,935.06
2019-05-17T10:42:30.553Z,935.08
2019-05-17T10:43:29.871Z,935.10
2019-05-17T10:44:43.574Z,935.14
2019-05-17T10:45:30.462Z,935.15
2019-05-17T10:46:30.019Z,935.12
2019-05-17T10:47:30.170Z,935.12
2019-05-17T10:48:30.085Z,935.16
2019-05-17T10:49:29.525Z,935.17
2019-05-17T10:50:29.775Z,935.18
2019-05-17T10:51:29.609Z,935.22
2019-05-17T10:52:29.979Z,935.20
2019-05-17T10:53:29.728Z,935.25
2019-05-17T10:54:30.089Z,935.27
2019-05-17T10:55:30.202Z,935.28
2019-05-17T10:56:28.559Z,935.29
2019-05-17T10:57:30.305Z,935.29
2019-05-17T10:58:29.646Z,935.32
2019-05-17T10:59:28.421Z,935.30
2019-05-17T11:00:30.343Z,935.32
2019-05-17T11:01:30.480Z,935.33
2019-05-17T11:02:30.419Z,935.29
2019-05-17T11:03:29.611Z,935.31
2019-05-17T11:04:28.178Z,935.28
2019-05-17T11:05:30.627Z,935.28
2019-05-17T11:06:30.143Z,935.26
2019-05-17T11:07:28.010Z,935.29
2019-05-17T11:08:27.977Z,935.31
2019-05-17T11:09:30.865Z,935.30
2019-05-17T11:10:27.867Z,935.26
2019-05-17T11:11:27.868Z,935.30
2019-05-17T11:12:27.789Z,935.30
2019-05-17T11:13:27.730Z,935.34
2019-05-17T11:14:27.696Z,935.34
2019-05-17T11:15:27.641Z,935.33
2019-05-17T11:16:27.578Z,935.37
2019-05-17T11:17:27.552Z,935.38
2019-05-17T11:18:27.497Z,935.38
2019-05-17T11:19:27.455Z,935.40
2019-05-17T11:20:27.420Z,935.39
2019-05-17T11:21:27.355Z,935.40
2019-05-17T11:22:27.293Z,935.43
2019-05-17T11:23:27.289Z,935.41
2019-05-17T11:24:27.213Z,935.39
2019-05-17T11:25:27.176Z,935.41
2019-05-17T11:26:27.116Z,935.41
2019-05-17T11:27:27.060Z,935.43
2019-05-17T11:28:27.007Z,935.42
2019-05-17T11:29:26.974Z,935.40
2019-05-17T11:30:26.921Z,935.41
2019-05-17T11:31:26.873Z,935.43
2019-05-17T11:32:26.841Z,935.37
2019-05-17T11:33:26.785Z,935.37
2019-05-17T11:34:26.733Z,935.36
2019-05-17T11:35:26.685Z,935.36
2019-05-17T11:36:26.630Z,935.37
2019-05-17T11:37:26.589Z,935.36
2019-05-17T11:38:26.549Z,935.34
2019-05-17T11:39:26.502Z,935.38
2019-05-17T11:40:26.473Z,935.39
2019-05-17T11:41:26.391Z,935.36
2019-05-17T11:42:26.350Z,935.35
2019-05-17T11:43:26.332Z,935.33
2019-05-17T11:44:26.259Z,935.33
2019-05-17T11:45:29.107Z,935.34
2019-05-17T11:46:35.712Z,935.33
2019-05-17T11:47:26.121Z,935.44
2019-05-17T11:48:26.052Z,935.42
2019-05-17T11:49:26.021Z,935.42
2019-05-17T11:50:25.958Z,935.42
2019-05-17T11:51:27.502Z,935.42
2019-05-17T11:52:25.873Z,935.45
2019-05-17T11:53:25.838Z,935.50
2019-05-17T11:54:25.778Z,935.53
2019-05-17T11:55:25.811Z,935.51
2019-05-17T11:56:25.692Z,935.54
2019-05-17T11:57:25.684Z,935.50
2019-05-17T11:58:25.595Z,935.59
2019-05-17T11:59:25.530Z,935.53
2019-05-17T12:00:25.481Z,935.57
2019-05-17T12:01:25.445Z,935.55
2019-05-17T12:02:25.383Z,935.61
2019-05-17T12:03:25.377Z,935.66
2019-05-17T12:04:25.305Z,935.66
2019-05-17T12:05:25.241Z,935.67
2019-05-17T12:06:25.208Z,935.70
2019-05-17T12:07:25.188Z,935.75
2019-05-17T12:08:25.106Z,935.76
2019-05-17T12:09:36.460Z,935.71
2019-05-17T12:10:25.056Z,935.79
2019-05-17T12:11:24.970Z,935.74
2019-05-17T12:12:24.906Z,935.74
2019-05-17T12:13:24.858Z,935.74
2019-05-17T12:14:24.813Z,935.76
2019-05-17T12:15:24.800Z,935.78
2019-05-17T12:16:24.731Z,935.81
2019-05-17T12:17:24.692Z,935.83
2019-05-17T12:18:24.619Z,935.79
2019-05-17T12:19:24.579Z,935.78
2019-05-17T12:20:24.545Z,935.82
2019-05-17T12:21:24.516Z,935.81
2019-05-17T12:22:24.441Z,935.86
2019-05-17T12:23:24.396Z,935.79
2019-05-17T12:24:24.355Z,935.84
2019-05-17T12:25:24.302Z,935.82
2019-05-17T12:26:24.353Z,935.83
2019-05-17T12:27:24.228Z,935.81